createdAt,value
2023-08-21T00:00:01.396Z,53.9
2023-08-21T00:05:01.264Z,54.2
2023-08-21T00:10:01.335Z,53.2
2023-08-21T00:15:01.246Z,58.4
2023-08-21T00:20:01.320Z,57.6
2023-08-21T00:25:01.217Z,57.7
2023-08-21T00:30:01.306Z,58.6
2023-08-21T00:35:01.313Z,58.7
2023-08-21T00:40:01.328Z,53.5
2023-08-21T00:45:01.210Z,54.0
2023-08-21T00:55:01.278Z,53.1
2023-08-21T01:00:01.353Z,57.2
2023-08-21T01:05:01.249Z,57.3
2023-08-21T01:10:01.256Z,57.1
2023-08-21T01:15:02.220Z,57.3
2023-08-21T01:20:01.281Z,56.6
2023-08-21T01:25:01.196Z,52.6
2023-08-21T01:30:01.250Z,52.0
2023-08-21T01:35:01.185Z,51.2
2023-08-21T01:40:01.329Z,50.1
2023-08-21T01:45:01.168Z,51.2
2023-08-21T01:50:01.317Z,51.1
2023-08-21T01:55:01.209Z,51.8
2023-08-21T02:00:01.354Z,52.6
2023-08-21T02:05:01.198Z,53.2
2023-08-21T02:10:01.345Z,52.6
2023-08-21T02:15:01.486Z,52.3
2023-08-21T02:20:01.678Z,51.8
2023-08-21T02:25:01.178Z,52.4
2023-08-21T02:30:01.252Z,51.9
2023-08-21T02:35:01.169Z,51.1
2023-08-21T02:40:01.294Z,50.9
2023-08-21T02:45:01.164Z,51.0
2023-08-21T02:50:01.321Z,50.0
2023-08-21T02:55:01.183Z,51.0
2023-08-21T03:00:01.314Z,51.7
2023-08-21T03:05:01.150Z,51.8
2023-08-21T03:10:01.210Z,55.9
2023-08-21T03:15:01.159Z,55.7
2023-08-21T03:25:01.301Z,54.8
2023-08-21T03:30:01.180Z,54.3
2023-08-21T03:35:01.118Z,54.8
2023-08-21T03:40:01.247Z,55.4
2023-08-21T03:45:01.147Z,55.0
2023-08-21T03:55:01.185Z,54.4
2023-08-21T04:00:01.179Z,54.4
2023-08-21T04:05:01.150Z,53.9
2023-08-21T04:10:01.291Z,49.0
2023-08-21T04:15:01.142Z,50.1
2023-08-21T04:20:01.272Z,51.0
2023-08-21T04:30:01.245Z,51.1
2023-08-21T04:35:01.453Z,50.8
2023-08-21T04:40:06.191Z,51.0
2023-08-21T04:45:01.120Z,51.2
2023-08-21T04:50:01.208Z,50.3
2023-08-21T05:00:01.267Z,50.3
2023-08-21T05:05:01.120Z,51.8
2023-08-21T05:10:01.210Z,51.5
2023-08-21T05:15:01.182Z,50.4
2023-08-21T05:20:01.317Z,50.6
2023-08-21T05:25:01.118Z,50.2
2023-08-21T05:30:01.208Z,49.0
2023-08-21T05:50:01.349Z,71.2
2023-08-21T05:55:01.196Z,59.1
2023-08-21T06:00:01.307Z,56.4
2023-08-21T06:05:01.185Z,55.4
2023-08-21T06:10:01.284Z,54.9
2023-08-21T06:15:01.167Z,51.7
2023-08-21T06:20:01.231Z,57.9
2023-08-21T06:25:01.155Z,58.3
2023-08-21T06:30:01.311Z,58.8
2023-08-21T06:35:01.160Z,59.4
2023-08-21T06:40:01.239Z,58.9
2023-08-21T06:45:01.175Z,55.2
2023-08-21T06:50:01.261Z,56.0
2023-08-21T06:55:01.196Z,57.2
2023-08-21T07:00:01.739Z,57.5
2023-08-21T07:05:01.202Z,58.6
2023-08-21T07:10:01.334Z,58.4
2023-08-21T07:15:01.229Z,58.9
2023-08-21T07:20:01.230Z,58.2
2023-08-21T07:25:01.168Z,59.0
2023-08-21T07:30:01.242Z,59.6
2023-08-21T07:35:01.167Z,59.9
2023-08-21T07:45:01.204Z,59.9
2023-08-21T07:55:01.210Z,59.7
2023-08-21T08:00:01.250Z,58.5
2023-08-21T08:05:01.118Z,57.6
2023-08-21T08:10:01.278Z,58.0
2023-08-21T08:15:01.138Z,58.2
2023-08-21T08:20:01.276Z,58.5
2023-08-21T08:25:01.132Z,59.5
2023-08-21T08:30:01.304Z,60.5
2023-08-21T08:35:01.185Z,59.8
2023-08-21T08:40:02.242Z,58.8
2023-08-21T08:45:01.141Z,59.4
2023-08-21T08:55:01.244Z,59.0
2023-08-21T09:00:01.277Z,61.0
2023-08-21T09:05:01.212Z,60.6
2023-08-21T09:10:01.292Z,61.2
2023-08-21T09:15:01.249Z,60.2
2023-08-21T09:20:01.200Z,59.2
2023-08-21T09:30:02.229Z,57.3
2023-08-21T09:35:01.181Z,58.5
2023-08-21T09:40:01.278Z,57.8
2023-08-21T09:45:03.799Z,58.8
2023-08-21T09:50:01.268Z,60.2
2023-08-21T09:55:01.257Z,59.6
2023-08-21T10:00:01.201Z,59.3
2023-08-21T10:05:01.166Z,60.1
2023-08-21T10:10:01.301Z,59.7
2023-08-21T10:15:01.212Z,59.4
2023-08-21T10:20:01.282Z,58.8
2023-08-21T10:30:02.297Z,59.8
2023-08-21T10:35:01.186Z,61.0
2023-08-21T10:45:02.241Z,61.1
2023-08-21T10:50:01.270Z,62.3
2023-08-21T10:55:01.187Z,62.6
2023-08-21T11:00:01.282Z,62.7
2023-08-21T11:05:01.194Z,62.3
2023-08-21T11:10:01.232Z,63.0
2023-08-21T11:15:01.290Z,63.4
2023-08-21T11:20:01.203Z,63.8
2023-08-21T11:25:01.174Z,63.6
2023-08-21T11:30:01.279Z,63.5
2023-08-21T11:40:01.248Z,68.5
2023-08-21T11:45:01.200Z,68.3
2023-08-21T11:50:01.223Z,68.4
2023-08-21T11:55:01.259Z,68.9
2023-08-21T12:00:01.304Z,68.9
2023-08-21T12:05:01.170Z,64.0
2023-08-21T12:15:01.421Z,63.8
2023-08-21T12:20:02.519Z,63.9
2023-08-21T12:25:01.161Z,64.6
2023-08-21T12:30:01.281Z,64.4
2023-08-21T12:40:01.417Z,65.2
2023-08-21T12:45:01.244Z,66.0
2023-08-21T12:50:01.354Z,66.7
2023-08-21T12:55:01.162Z,66.5
2023-08-21T13:05:01.208Z,66.7
2023-08-21T13:10:06.189Z,66.0
2023-08-21T13:15:01.120Z,65.1
2023-08-21T13:25:01.265Z,65.8
2023-08-21T13:30:01.250Z,65.6
2023-08-21T13:35:01.115Z,66.0
2023-08-21T13:40:01.183Z,66.4
2023-08-21T13:45:01.134Z,66.2
2023-08-21T13:50:01.268Z,65.3
2023-08-21T13:55:01.146Z,65.6
2023-08-21T14:00:02.320Z,65.9
2023-08-21T14:05:01.179Z,66.0
2023-08-21T14:10:01.352Z,66.2
2023-08-21T14:15:01.128Z,66.5
2023-08-21T14:20:01.221Z,68.1
2023-08-21T14:25:01.185Z,68.0
2023-08-21T14:35:01.208Z,74.0
2023-08-21T14:40:01.218Z,73.6
2023-08-21T14:45:01.175Z,73.5
2023-08-21T14:50:01.207Z,71.8
2023-08-21T14:55:01.173Z,71.6
2023-08-21T15:00:02.199Z,65.5
2023-08-21T15:05:06.365Z,65.1
2023-08-21T15:15:01.240Z,65.1
2023-08-21T15:20:01.209Z,65.4
2023-08-21T15:25:01.191Z,66.1
2023-08-21T15:30:01.235Z,65.6
2023-08-21T15:40:01.477Z,66.4
2023-08-21T15:45:01.192Z,67.0
2023-08-21T15:50:01.252Z,66.4
2023-08-21T15:55:01.157Z,66.9
2023-08-21T16:00:01.230Z,67.0
2023-08-21T16:05:01.295Z,65.9
2023-08-21T16:15:02.352Z,65.6
2023-08-21T16:20:01.181Z,65.5
2023-08-21T16:25:01.206Z,65.8
2023-08-21T16:30:01.255Z,65.7
2023-08-21T16:35:01.114Z,66.2
2023-08-21T16:45:01.355Z,65.8
2023-08-21T16:55:01.242Z,66.0
2023-08-21T17:00:01.240Z,65.7
2023-08-21T17:05:01.156Z,65.6
2023-08-21T17:10:01.244Z,65.4
2023-08-21T17:15:02.932Z,64.6
2023-08-21T17:20:01.176Z,64.1
2023-08-21T17:25:12.536Z,64.3
2023-08-21T17:30:01.178Z,63.6
2023-08-21T17:35:01.121Z,62.6
2023-08-21T17:40:01.244Z,62.5
2023-08-21T17:45:02.183Z,61.6
2023-08-21T17:55:01.283Z,61.2
2023-08-21T18:00:01.286Z,60.5
2023-08-21T18:05:01.601Z,59.8
2023-08-21T18:10:01.840Z,59.4
2023-08-21T18:15:01.189Z,59.4
2023-08-21T18:20:01.273Z,58.2
2023-08-21T18:25:01.186Z,57.2
2023-08-21T18:30:01.222Z,56.7
2023-08-21T18:35:01.148Z,56.2
2023-08-21T18:40:01.308Z,55.4
2023-08-21T18:45:01.269Z,55.6
2023-08-21T18:50:06.193Z,56.2
2023-08-21T19:00:01.231Z,56.2
2023-08-21T19:05:01.181Z,55.9
2023-08-21T19:10:01.218Z,56.0
2023-08-21T19:15:01.188Z,55.7
2023-08-21T19:20:01.266Z,55.6
2023-08-21T19:25:01.183Z,55.4
2023-08-21T19:30:01.277Z,55.1
2023-08-21T19:35:01.201Z,54.2
2023-08-21T19:40:01.212Z,54.3
2023-08-21T19:45:01.179Z,53.5
2023-08-21T19:50:01.303Z,53.4
2023-08-21T20:00:01.340Z,53.1
2023-08-21T20:05:01.190Z,53.3
2023-08-21T20:10:01.220Z,52.4
2023-08-21T20:15:02.326Z,52.4
2023-08-21T20:20:01.289Z,51.9
2023-08-21T20:25:01.172Z,53.8
2023-08-21T20:30:01.272Z,53.1
2023-08-21T20:35:01.149Z,52.6
2023-08-21T20:40:06.323Z,59.0
2023-08-21T20:45:01.150Z,58.0
2023-08-21T20:50:01.901Z,55.5
2023-08-21T20:55:01.115Z,55.6
2023-08-21T21:00:01.209Z,55.0
2023-08-21T21:05:01.227Z,47.6
2023-08-21T21:15:01.176Z,48.2
2023-08-21T21:20:01.273Z,48.0
2023-08-21T21:25:01.113Z,47.8
2023-08-21T21:30:01.179Z,48.2
2023-08-21T21:35:01.205Z,48.4
2023-08-21T21:40:01.230Z,48.6
2023-08-21T21:45:01.134Z,48.9
2023-08-21T21:50:01.268Z,50.7
2023-08-21T21:55:01.159Z,51.0
2023-08-21T22:00:01.300Z,50.8
2023-08-21T22:05:01.166Z,50.0
2023-08-21T22:15:02.246Z,48.7
2023-08-21T22:20:01.245Z,47.4
2023-08-21T22:25:01.157Z,47.0
2023-08-21T22:30:01.236Z,47.5
2023-08-21T22:35:01.146Z,49.4
2023-08-21T22:40:01.249Z,50.4
2023-08-21T22:45:01.168Z,49.5
2023-08-21T22:50:01.285Z,49.6
2023-08-21T22:55:01.158Z,48.8
2023-08-21T23:00:01.310Z,47.3
2023-08-21T23:05:01.163Z,49.8
2023-08-21T23:10:01.212Z,50.0
2023-08-21T23:15:01.141Z,50.4
2023-08-21T23:20:01.258Z,57.6
2023-08-21T23:25:01.146Z,57.4
2023-08-21T23:30:01.282Z,54.6
2023-08-21T23:35:01.224Z,55.0
2023-08-21T23:40:01.291Z,54.5
2023-08-21T23:45:01.156Z,47.2
2023-08-21T23:50:01.218Z,46.9
2023-08-21T23:55:01.155Z,47.3
